Time;durP1;ratioP1;P1;durP2;ratioP2;P2;SDS_P1;SDS_P2;PMS_P1;PMS_P2;Temp;Humidity;BMP_temperature;BMP_pressure;BME280_temperature;BME280_humidity;BME280_pressure;Samples;Min_cycle;Max_cycle;Signal;HPM_P1;HPM_P2
2022/10/02 00:02:23;;;;;;;1.83;0.77;;;;;;;13.89;100.00;100247.84;5034374;28;20643;-70
2022/10/02 00:04:56;;;;;;;5.97;0.63;;;;;;;13.88;100.00;100254.41;5029369;28;20040;-69
2022/10/02 00:07:29;;;;;;;3.88;1.05;;;;;;;13.86;100.00;100255.97;5032981;28;20040;-68
2022/10/02 00:10:02;;;;;;;2.75;0.63;;;;;;;13.81;100.00;100256.34;5034772;28;20045;-68
2022/10/02 00:12:30;;;;;;;11.13;1.42;;;;;;;13.73;100.00;100260.97;5039987;28;20090;-69
2022/10/02 00:15:03;;;;;;;1.85;0.68;;;;;;;13.84;100.00;100261.00;5033188;28;20379;-71
2022/10/02 00:17:36;;;;;;;6.53;1.60;;;;;;;13.84;100.00;100258.28;5038120;28;20068;-69
2022/10/02 00:20:10;;;;;;;3.45;1.00;;;;;;;13.63;100.00;100253.63;5033103;28;20041;-69
2022/10/02 00:22:46;;;;;;;1.52;0.73;;;;;;;13.61;100.00;100257.88;5027575;28;20041;-71
2022/10/02 00:25:21;;;;;;;5.90;1.30;;;;;;;13.74;100.00;100259.06;5028021;28;20033;-67
2022/10/02 00:28:07;;;;;;;6.40;0.75;;;;;;;13.75;100.00;100264.06;5029204;28;20043;-69
2022/10/02 00:30:58;;;;;;;2.22;1.02;;;;;;;13.81;100.00;100264.47;5028874;28;20033;-69
2022/10/02 00:33:51;;;;;;;5.38;0.88;;;;;;;13.87;100.00;100255.56;5027859;28;20126;-68
2022/10/02 00:36:30;;;;;;;3.40;1.13;;;;;;;13.91;100.00;100263.69;5007009;28;20438;-68
2022/10/02 00:39:10;;;;;;;4.20;1.00;;;;;;;13.90;100.00;100271.03;5009303;28;20046;-70
2022/10/02 00:42:04;;;;;;;3.78;1.00;;;;;;;13.84;100.00;100269.88;5018822;28;20038;-71
2022/10/02 00:44:58;;;;;;;7.65;0.95;;;;;;;13.89;100.00;100266.00;5024804;28;20107;-69
2022/10/02 00:47:31;;;;;;;2.97;0.80;;;;;;;13.69;100.00;100262.91;4944483;28;20051;-68
2022/10/02 00:49:57;;;;;;;2.17;0.90;;;;;;;13.69;100.00;100262.91;5022918;28;20033;-69
2022/10/02 00:52:47;;;;;;;2.25;0.95;;;;;;;13.55;100.00;100262.88;5010189;28;20044;-69
2022/10/02 00:55:21;;;;;;;6.22;1.05;;;;;;;13.64;100.00;100262.50;5009269;28;20052;-68
2022/10/02 00:58:06;;;;;;;3.88;0.65;;;;;;;13.73;100.00;100271.81;5024726;28;20044;-70
2022/10/02 01:00:31;;;;;;;4.22;1.30;;;;;;;13.74;100.00;100269.88;5029811;28;20025;-69
2022/10/02 01:03:00;;;;;;;0.85;0.77;;;;;;;13.79;100.00;100264.06;5027465;28;20697;-69
2022/10/02 01:05:26;;;;;;;2.88;0.65;;;;;;;13.85;100.00;100260.59;5028514;28;20084;-70
2022/10/02 01:07:53;;;;;;;2.65;1.30;;;;;;;13.87;100.00;100265.63;5025736;28;20490;-70
2022/10/02 01:10:21;;;;;;;9.55;0.63;;;;;;;13.90;100.00;100278.41;5032215;28;20450;-67
2022/10/02 01:12:48;;;;;;;0.73;0.60;;;;;;;13.92;100.00;100270.66;5025712;28;20120;-67
2022/10/02 01:15:19;;;;;;;2.10;0.73;;;;;;;13.95;100.00;100272.59;5029157;28;20037;-68
2022/10/02 01:17:48;;;;;;;5.90;1.00;;;;;;;13.95;100.00;100273.38;5032036;28;20033;-67
2022/10/02 01:20:19;;;;;;;1.05;0.70;;;;;;;13.79;100.00;100289.22;5036795;28;20045;-67
2022/10/02 01:23:02;;;;;;;1.53;0.70;;;;;;;13.91;100.00;100286.13;5026539;28;20037;-68
2022/10/02 01:25:28;;;;;;;0.75;0.65;;;;;;;13.97;100.00;100300.84;5029133;28;20402;-68
2022/10/02 01:27:53;;;;;;;1.13;0.55;;;;;;;13.97;100.00;100295.44;5029551;28;20098;-68
2022/10/02 01:30:20;;;;;;;3.80;0.70;;;;;;;14.09;100.00;100299.69;5022120;28;20091;-67
2022/10/02 01:32:55;;;;;;;4.43;1.05;;;;;;;14.14;100.00;100302.00;5029848;28;20030;-67
2022/10/02 01:35:25;;;;;;;4.20;1.50;;;;;;;14.10;100.00;100312.06;5028152;28;20041;-67
2022/10/02 01:37:52;;;;;;;9.50;1.00;;;;;;;14.16;100.00;100324.81;5029135;28;20513;-66
2022/10/02 01:40:30;;;;;;;2.97;0.70;;;;;;;14.27;100.00;100349.19;5027632;28;20040;-67
2022/10/02 01:43:20;;;;;;;2.67;0.82;;;;;;;14.30;100.00;100353.88;5033220;28;20056;-67
2022/10/02 01:46:20;;;;;;;3.28;0.82;;;;;;;14.36;100.00;100355.81;5023710;28;20050;-66
2022/10/02 01:49:01;;;;;;;0.45;0.45;;;;;;;14.39;100.00;100360.47;5026673;28;20038;-67
2022/10/02 01:51:29;;;;;;;2.03;1.10;;;;;;;14.42;100.00;100367.03;5035659;28;20033;-66
2022/10/02 01:54:10;;;;;;;1.13;0.63;;;;;;;14.34;100.00;100379.03;5028209;28;20037;-67
2022/10/02 01:56:46;;;;;;;2.38;0.85;;;;;;;14.30;100.00;100387.16;5020365;28;20044;-67
2022/10/02 01:59:50;;;;;;;1.25;0.60;;;;;;;14.40;100.00;100372.84;5027591;28;20030;-67
2022/10/02 02:02:31;;;;;;;4.18;0.70;;;;;;;14.40;100.00;100372.09;5031700;28;20041;-67
2022/10/02 02:05:01;;;;;;;3.05;1.10;;;;;;;14.41;100.00;100366.28;5031909;28;20561;-66
2022/10/02 02:07:42;;;;;;;5.72;1.10;;;;;;;14.29;100.00;100372.06;5036261;28;20549;-66
2022/10/02 02:10:22;;;;;;;2.58;1.17;;;;;;;14.25;100.00;100376.69;5032781;28;20584;-67
2022/10/02 02:12:58;;;;;;;6.00;1.90;;;;;;;14.23;100.00;100389.03;5031056;28;20394;-67
2022/10/02 02:15:35;;;;;;;3.17;1.52;;;;;;;14.26;100.00;100391.00;5034309;28;20033;-67
2022/10/02 02:18:35;;;;;;;3.92;1.67;;;;;;;14.11;100.00;100384.78;5032595;28;20037;-67
2022/10/02 02:21:27;;;;;;;1.77;1.25;;;;;;;14.23;100.00;100381.69;5010368;28;20052;-67
2022/10/02 02:23:56;;;;;;;13.48;2.05;;;;;;;14.12;100.00;100370.09;4998702;28;20490;-67
2022/10/02 02:26:24;;;;;;;6.20;1.45;;;;;;;14.12;100.00;100378.22;5031639;28;20037;-67
2022/10/02 02:28:55;;;;;;;5.13;1.48;;;;;;;14.14;100.00;100375.91;5032988;28;20029;-67
2022/10/02 02:31:27;;;;;;;3.22;1.80;;;;;;;14.05;100.00;100355.78;5035581;28;20121;-67
2022/10/02 02:33:59;;;;;;;2.28;1.40;;;;;;;14.17;100.00;100364.28;5030078;28;20049;-68
2022/10/02 02:36:39;;;;;;;3.72;1.60;;;;;;;14.14;100.00;100370.47;5024431;28;20040;-67
2022/10/02 02:39:28;;;;;;;7.60;1.35;;;;;;;14.29;100.00;100361.22;5019670;28;20041;-67
2022/10/02 02:42:00;;;;;;;4.47;1.25;;;;;;;14.34;100.00;100360.09;5025348;28;20041;-67
2022/10/02 02:44:29;;;;;;;;;;;;;;;14.28;100.00;100362.41;5026338;28;20037;-67
2022/10/02 02:47:05;;;;;;;3.00;1.42;;;;;;;14.08;100.00;100358.47;5031507;28;19917;-68
2022/10/02 02:49:38;;;;;;;2.10;1.50;;;;;;;14.06;100.00;100374.34;5030730;28;20113;-67
2022/10/02 02:52:10;;;;;;;1.45;1.27;;;;;;;14.02;100.00;100362.72;5029827;28;20503;-67
2022/10/02 02:54:52;;;;;;;5.82;1.92;;;;;;;14.12;100.00;100361.97;5037703;28;20036;-67
2022/10/02 02:57:27;;;;;;;6.97;1.02;;;;;;;14.03;100.00;100358.09;5031595;28;20520;-67
2022/10/02 02:59:54;;;;;;;2.75;1.33;;;;;;;14.01;100.00;100358.47;5026161;28;20030;-67
2022/10/02 03:02:20;;;;;;;8.32;1.40;;;;;;;14.11;100.00;100355.00;5031417;28;20029;-67
2022/10/02 03:04:45;;;;;;;3.78;1.27;;;;;;;14.23;100.00;100346.50;5034662;28;20367;-67
2022/10/02 03:07:15;;;;;;;2.78;1.38;;;;;;;14.28;100.00;100356.22;5031179;28;20172;-67
2022/10/02 03:09:47;;;;;;;1.00;0.90;;;;;;;14.22;100.00;100355.00;5032205;28;20038;-68
2022/10/02 03:12:42;;;;;;;1.80;1.13;;;;;;;14.18;100.00;100363.13;5030105;28;20033;-67
2022/10/02 03:15:26;;;;;;;1.67;1.05;;;;;;;14.20;100.00;100357.31;5012560;28;20045;-67
2022/10/02 03:18:05;;;;;;;3.20;1.30;;;;;;;14.08;100.00;100366.59;5031135;28;20061;-67
2022/10/02 03:20:42;;;;;;;2.78;1.48;;;;;;;14.22;100.00;100380.16;5023958;28;20087;-70
2022/10/02 03:23:14;;;;;;;1.58;0.93;;;;;;;14.24;100.00;100369.72;5026580;28;20041;-67
2022/10/02 03:25:53;;;;;;;1.67;0.95;;;;;;;14.27;100.00;100371.69;5029189;28;20037;-67
2022/10/02 03:28:27;;;;;;;2.53;0.98;;;;;;;14.31;100.00;100353.50;5031244;28;20049;-67
2022/10/02 03:30:55;;;;;;;3.80;1.05;;;;;;;14.32;100.00;100349.59;5030441;28;20087;-67
2022/10/02 03:33:22;;;;;;;2.08;0.95;;;;;;;14.31;100.00;100358.13;5030307;28;20136;-67
2022/10/02 03:35:49;;;;;;;6.22;1.02;;;;;;;14.30;100.00;100359.31;5025095;28;20386;-67
2022/10/02 03:38:16;;;;;;;1.30;1.00;;;;;;;14.21;100.00;100359.66;5030985;28;20041;-67
2022/10/02 03:40:42;;;;;;;1.40;1.15;;;;;;;14.12;100.00;100356.56;5035479;28;20426;-67
2022/10/02 03:43:17;;;;;;;3.22;1.08;;;;;;;14.20;100.00;100351.91;5030417;28;20041;-67
2022/10/02 03:45:42;;;;;;;1.23;0.88;;;;;;;14.18;100.00;100349.59;5029945;28;20033;-68
2022/10/02 03:48:08;;;;;;;2.95;1.02;;;;;;;14.20;100.00;100352.69;5031399;28;20041;-67
2022/10/02 03:50:33;;;;;;;0.90;0.90;;;;;;;14.17;100.00;100353.44;5030362;28;20037;-71
2022/10/02 03:52:59;;;;;;;2.33;0.88;;;;;;;14.24;100.00;100364.31;5033152;28;20068;-67
2022/10/02 03:55:37;;;;;;;1.52;0.90;;;;;;;14.30;100.00;100365.47;5033428;28;20103;-67
2022/10/02 03:58:12;;;;;;;2.17;0.90;;;;;;;14.28;100.00;100358.91;5030498;28;20042;-67
2022/10/02 04:01:17;;;;;;;1.85;0.80;;;;;;;14.19;100.00;100351.13;5029530;28;20040;-67
2022/10/02 04:03:53;;;;;;;0.75;0.73;;;;;;;14.15;100.00;100363.88;5028298;28;20037;-69
2022/10/02 04:06:25;;;;;;;1.10;0.88;;;;;;;14.14;100.00;100362.34;5027267;28;20033;-67
2022/10/02 04:08:59;;;;;;;1.17;0.88;;;;;;;14.14;100.00;100373.19;5032956;28;20029;-68
2022/10/02 04:11:37;;;;;;;1.67;0.70;;;;;;;14.13;100.00;100368.91;5028398;28;20104;-67
2022/10/02 04:14:11;;;;;;;5.68;1.20;;;;;;;14.03;100.00;100353.44;5030387;28;20037;-67
2022/10/02 04:16:47;;;;;;;5.65;1.23;;;;;;;14.04;100.00;100365.03;5011843;28;20029;-67
2022/10/02 04:19:32;;;;;;;2.47;0.88;;;;;;;13.98;100.00;100356.53;5030294;28;20022;-67
2022/10/02 04:22:15;;;;;;;3.92;1.48;;;;;;;13.92;100.00;100366.19;5030515;28;20099;-68
2022/10/02 04:24:50;;;;;;;3.58;0.85;;;;;;;13.95;100.00;100376.25;5029328;28;20491;-69
2022/10/02 04:27:40;;;;;;;1.27;0.95;;;;;;;13.87;100.00;100371.97;5030174;28;20037;-67
2022/10/02 04:30:18;;;;;;;1.50;0.95;;;;;;;13.84;100.00;100374.69;5027127;28;20033;-67
2022/10/02 04:32:44;;;;;;;5.18;0.90;;;;;;;13.82;100.00;100375.03;5028866;28;20043;-67
2022/10/02 04:35:21;;;;;;;0.98;0.70;;;;;;;13.78;100.00;100378.91;5050797;22;20076;-69
2022/10/02 04:37:58;;;;;;;2.65;0.90;;;;;;;13.76;100.00;100384.72;5048302;28;20041;-69
2022/10/02 04:40:49;;;;;;;1.88;1.02;;;;;;;13.64;100.00;100378.88;5035971;28;20064;-68
2022/10/02 04:43:42;;;;;;;1.63;0.90;;;;;;;13.54;100.00;100374.97;5030987;28;20085;-68
2022/10/02 04:46:28;;;;;;;4.00;0.93;;;;;;;13.39;100.00;100371.41;5041271;28;20477;-69
2022/10/02 04:49:04;;;;;;;3.33;1.10;;;;;;;13.36;100.00;100383.00;5039946;28;20041;-69
2022/10/02 04:51:38;;;;;;;1.83;1.20;;;;;;;13.28;100.00;100377.94;5053096;28;20444;-69
2022/10/02 04:54:13;;;;;;;5.40;1.05;;;;;;;13.29;100.00;100379.50;5049785;28;20079;-68
2022/10/02 04:56:54;;;;;;;1.67;1.05;;;;;;;13.27;100.00;100371.78;5049381;28;20091;-69
2022/10/02 04:59:45;;;;;;;1.10;1.00;;;;;;;13.23;100.00;100375.59;5033996;28;20032;-69
2022/10/02 05:02:13;;;;;;;1.63;1.10;;;;;;;13.25;100.00;100382.19;5044970;28;20036;-68
2022/10/02 05:04:51;;;;;;;3.25;1.05;;;;;;;13.22;100.00;100382.19;5041008;28;20369;-68
2022/10/02 05:07:54;;;;;;;5.28;1.02;;;;;;;13.26;100.00;100389.13;5028964;28;20448;-68
2022/10/02 05:10:29;;;;;;;4.18;1.23;;;;;;;13.25;100.00;100395.72;5049157;28;20404;-68
2022/10/02 05:13:04;;;;;;;3.22;1.05;;;;;;;13.19;100.00;100383.72;5032015;28;20029;-69
2022/10/02 05:15:48;;;;;;;2.92;1.23;;;;;;;13.29;100.00;100384.91;5030712;28;20059;-69
2022/10/02 05:18:16;;;;;;;2.35;1.58;;;;;;;13.29;100.00;100395.72;5043847;28;20508;-69
2022/10/02 05:21:23;;;;;;;5.63;1.05;;;;;;;13.17;100.00;100387.94;5052672;28;20366;-69
2022/10/02 05:24:33;;;;;;;1.50;1.02;;;;;;;13.16;100.00;100384.44;5027061;28;20057;-67
2022/10/02 05:27:08;;;;;;;5.60;1.13;;;;;;;13.13;100.00;100387.13;5036871;28;20108;-69
2022/10/02 05:30:02;;;;;;;1.10;1.00;;;;;;;13.19;100.00;100375.59;5050518;28;20032;-69
2022/10/02 05:32:52;;;;;;;2.58;1.23;;;;;;;13.33;100.00;100386.50;5042288;28;20034;-69
2022/10/02 05:35:27;;;;;;;1.15;1.05;;;;;;;13.38;100.00;100388.03;5030201;28;20064;-69
2022/10/02 05:38:02;;;;;;;1.90;1.30;;;;;;;13.40;100.00;100391.13;5053425;28;20087;-69
2022/10/02 05:40:46;;;;;;;4.47;1.30;;;;;;;13.41;100.00;100404.28;5053807;28;20584;-67
2022/10/02 05:43:20;;;;;;;2.45;1.17;;;;;;;13.38;100.00;100396.16;5049537;28;20045;-68
2022/10/02 05:45:55;;;;;;;1.70;1.33;;;;;;;13.44;100.00;100400.81;5052500;28;21676;-68
2022/10/02 05:48:43;;;;;;;2.30;1.05;;;;;;;13.48;100.00;100403.53;5050140;28;20045;-68
2022/10/02 05:51:28;;;;;;;2.22;1.27;;;;;;;13.51;100.00;100413.63;5052007;28;20512;-68
2022/10/02 05:54:02;;;;;;;4.43;1.40;;;;;;;13.53;100.00;100395.06;5050702;28;20037;-69
2022/10/02 05:56:43;;;;;;;3.25;1.65;;;;;;;13.54;100.00;100394.69;5061748;28;20078;-69
2022/10/02 05:59:27;;;;;;;2.45;1.30;;;;;;;13.61;100.00;100391.22;5055868;28;20043;-67
2022/10/02 06:01:55;;;;;;;7.15;2.97;;;;;;;13.54;100.00;100402.81;5045367;28;20087;-69
2022/10/02 06:04:28;;;;;;;1.88;1.25;;;;;;;13.51;100.00;100410.91;5050868;28;20535;-66
2022/10/02 06:07:05;;;;;;;1.88;1.35;;;;;;;13.51;100.00;100410.91;5045649;28;20559;-68
2022/10/02 06:09:46;;;;;;;4.30;1.40;;;;;;;13.60;100.00;100416.75;5041981;28;20525;-68
2022/10/02 06:12:16;;;;;;;5.18;1.52;;;;;;;13.63;100.00;100424.09;5044272;28;20067;-69
2022/10/02 06:14:57;;;;;;;2.85;1.58;;;;;;;13.53;100.00;100439.13;5037077;28;20044;-68
2022/10/02 06:17:46;;;;;;;7.25;1.55;;;;;;;13.54;100.00;100443.41;5036016;28;20029;-69
2022/10/02 06:20:17;;;;;;;5.28;2.30;;;;;;;13.68;100.00;100439.19;5039510;28;20533;-68
2022/10/02 06:22:48;;;;;;;4.45;1.70;;;;;;;13.75;100.00;100433.78;5039828;28;20124;-68
2022/10/02 06:25:23;;;;;;;4.28;1.70;;;;;;;13.70;100.00;100436.88;5036599;28;20037;-68
2022/10/02 06:28:01;;;;;;;2.85;1.73;;;;;;;13.72;100.00;100439.97;5052831;28;20388;-68
2022/10/02 06:30:30;;;;;;;3.40;1.48;;;;;;;13.58;100.00;100432.59;5045680;28;20040;-68
2022/10/02 06:33:20;;;;;;;3.38;1.80;;;;;;;13.60;100.00;100441.09;5040765;28;20455;-67
2022/10/02 06:36:07;;;;;;;2.42;1.58;;;;;;;13.73;100.00;100436.91;5044975;28;20084;-67
2022/10/02 06:38:51;;;;;;;2.83;1.42;;;;;;;13.89;100.00;100434.63;5054928;28;20496;-69
2022/10/02 06:41:39;;;;;;;2.45;1.27;;;;;;;13.91;100.00;100443.16;5046468;28;20037;-68
2022/10/02 06:44:12;;;;;;;3.55;1.42;;;;;;;13.76;100.00;100438.84;5032157;28;20036;-68
2022/10/02 06:46:58;;;;;;;1.67;1.27;;;;;;;13.92;100.00;100452.03;5038214;28;20033;-66
2022/10/02 06:49:35;;;;;;;2.17;0.95;;;;;;;14.02;100.00;100449.38;5041912;28;20029;-68
2022/10/02 06:52:28;;;;;;;1.17;0.88;;;;;;;14.05;100.00;100445.13;5038719;28;20184;-67
2022/10/02 06:55:17;;;;;;;2.25;0.95;;;;;;;14.09;100.00;100441.25;5038539;28;20037;-67
2022/10/02 06:57:55;;;;;;;3.40;1.30;;;;;;;14.16;100.00;100440.50;5029038;28;20125;-67
2022/10/02 07:00:21;;;;;;;1.77;1.02;;;;;;;14.18;100.00;100438.19;5034863;28;20040;-67
2022/10/02 07:03:05;;;;;;;2.60;0.73;;;;;;;14.25;100.00;100444.41;5039693;28;20028;-67
2022/10/02 07:05:55;;;;;;;2.58;0.90;;;;;;;14.26;100.00;100437.84;5033156;28;20091;-67
2022/10/02 07:08:48;;;;;;;1.83;0.80;;;;;;;14.32;100.00;100446.38;5021544;28;20060;-67
2022/10/02 07:11:32;;;;;;;3.88;0.60;;;;;;;14.28;100.00;100446.38;5050361;28;20115;-68
2022/10/02 07:14:31;;;;;;;1.30;0.80;;;;;;;14.35;100.00;100456.44;5048075;28;20036;-67
2022/10/02 07:17:22;;;;;;;2.28;0.73;;;;;;;14.30;100.00;100459.53;5048419;28;20046;-67
2022/10/02 07:20:14;;;;;;;2.03;0.73;;;;;;;14.30;100.00;100467.66;5048714;28;20120;-68
2022/10/02 07:23:17;;;;;;;0.90;0.60;;;;;;;14.40;100.00;100467.66;5042734;28;20037;-68
2022/10/02 07:25:57;;;;;;;1.30;0.68;;;;;;;14.51;100.00;100478.53;5038644;28;20583;-68
2022/10/02 07:28:36;;;;;;;0.68;0.60;;;;;;;14.62;100.00;100486.66;5047684;28;20025;-68
2022/10/02 07:31:33;;;;;;;1.67;1.05;;;;;;;14.72;100.00;100497.53;5032229;28;20034;-68
2022/10/02 07:34:30;;;;;;;1.00;0.75;;;;;;;14.93;100.00;100505.66;5036798;28;20120;-67
2022/10/02 07:37:21;;;;;;;3.67;0.82;;;;;;;14.93;100.00;100502.19;5037356;28;20799;-67
2022/10/02 07:40:29;;;;;;;1.35;0.77;;;;;;;15.25;100.00;100511.84;5046475;28;20024;-67
2022/10/02 07:43:23;;;;;;;3.85;0.70;;;;;;;15.44;100.00;100518.84;5046898;28;20045;-67
2022/10/02 07:46:20;;;;;;;2.10;0.77;;;;;;;15.56;100.00;100510.31;5044614;28;20119;-67
2022/10/02 07:49:16;;;;;;;1.10;0.73;;;;;;;15.89;100.00;100515.22;5028055;28;20051;-67
2022/10/02 07:52:10;;;;;;;5.55;0.90;;;;;;;16.02;100.00;100513.63;5042068;28;20075;-67
2022/10/02 07:54:57;;;;;;;1.65;0.65;;;;;;;16.01;100.00;100520.22;5034299;28;20171;-66
2022/10/02 07:57:27;;;;;;;1.92;1.10;;;;;;;15.90;99.09;100519.50;5030978;28;20060;-67
2022/10/02 08:00:27;;;;;;;1.45;0.70;;;;;;;15.64;99.00;100514.53;5036657;28;20048;-67
2022/10/02 08:03:11;;;;;;;0.88;0.60;;;;;;;15.46;99.84;100502.94;5001173;28;20073;-68
2022/10/02 08:05:47;;;;;;;3.22;1.13;;;;;;;15.38;100.00;100521.16;5045294;28;20079;-66
2022/10/02 08:08:29;;;;;;;2.97;0.70;;;;;;;15.21;100.00;100521.16;5049301;28;20056;-66
2022/10/02 08:11:02;;;;;;;0.40;0.40;;;;;;;15.00;100.00;100529.31;5047613;28;20067;-66
2022/10/02 08:13:35;;;;;;;2.10;0.70;;;;;;;15.08;100.00;100538.97;5044721;28;20041;-67
2022/10/02 08:16:03;;;;;;;5.53;0.98;;;;;;;15.06;100.00;100546.75;5049368;28;20551;-66
2022/10/02 08:18:36;;;;;;;2.10;1.00;;;;;;;15.19;100.00;100553.34;5042242;28;20021;-66
2022/10/02 08:21:08;;;;;;;2.28;0.68;;;;;;;15.28;100.00;100549.06;5045300;28;20077;-65
2022/10/02 08:23:58;;;;;;;1.95;0.80;;;;;;;15.19;100.00;100556.06;5041344;28;20037;-67
2022/10/02 08:26:29;;;;;;;3.28;0.60;;;;;;;15.25;100.00;100552.53;5043935;28;21070;-66
2022/10/02 08:29:04;;;;;;;0.68;0.68;;;;;;;15.34;100.00;100544.81;5036081;28;20033;-67
2022/10/02 08:31:31;;;;;;;0.47;0.47;;;;;;;15.45;100.00;100554.91;5044018;28;20112;-68
2022/10/02 08:34:05;;;;;;;2.42;0.88;;;;;;;15.78;100.00;100555.22;5042122;28;20523;-66
2022/10/02 08:36:37;;;;;;;1.02;0.80;;;;;;;16.22;100.00;100549.25;5043760;28;20041;-67
2022/10/02 08:39:14;;;;;;;1.35;0.90;;;;;;;16.80;100.00;100556.75;5044393;28;20163;-67
2022/10/02 08:41:58;;;;;;;1.98;0.75;;;;;;;17.25;100.00;100555.59;5042935;28;20033;-67
2022/10/02 08:45:01;;;;;;;1.42;0.50;;;;;;;17.55;99.10;100572.09;5043981;28;20373;-66
2022/10/02 08:47:57;;;;;;;2.30;0.50;;;;;;;17.42;95.81;100573.72;5038495;28;20076;-66
2022/10/02 08:50:52;;;;;;;3.72;0.60;;;;;;;17.31;95.27;100588.59;5035583;28;20025;-67
2022/10/02 08:53:26;;;;;;;2.58;0.60;;;;;;;17.15;95.06;100595.34;5046226;28;20428;-66
2022/10/02 08:56:04;;;;;;;2.40;0.63;;;;;;;16.87;95.33;100583.88;5037799;28;20033;-66
2022/10/02 08:58:29;;;;;;;2.17;0.40;;;;;;;16.72;95.29;100583.22;5041331;28;20069;-65
2022/10/02 09:01:34;;;;;;;0.93;0.60;;;;;;;16.52;95.93;100579.44;5025860;28;20040;-67
2022/10/02 09:04:39;;;;;;;0.82;0.70;;;;;;;16.18;98.00;100586.56;5035010;28;20378;-66
2022/10/02 09:07:20;;;;;;;1.05;0.63;;;;;;;15.82;100.00;100575.00;5024299;28;20136;-66
2022/10/02 09:09:58;;;;;;;1.52;0.60;;;;;;;15.71;100.00;100574.25;5043902;28;20037;-67
2022/10/02 09:12:57;;;;;;;2.47;0.93;;;;;;;15.52;100.00;100561.09;5047192;28;20028;-67
2022/10/02 09:15:43;;;;;;;2.67;0.60;;;;;;;15.53;100.00;100568.06;5053710;28;20434;-67
2022/10/02 09:18:39;;;;;;;5.22;0.73;;;;;;;15.45;100.00;100552.94;5048735;28;20139;-67
2022/10/02 09:21:18;;;;;;;1.88;0.70;;;;;;;15.60;100.00;100568.06;5044438;28;20456;-67
2022/10/02 09:24:25;;;;;;;0.75;0.68;;;;;;;15.71;100.00;100574.25;5053885;28;20119;-67
2022/10/02 09:27:06;;;;;;;3.22;0.70;;;;;;;15.92;100.00;100579.63;5008686;28;20420;-67
2022/10/02 09:29:38;;;;;;;0.70;0.65;;;;;;;16.04;100.00;100587.38;5039619;28;20029;-67
2022/10/02 09:32:25;;;;;;;1.60;1.08;;;;;;;16.44;100.00;100582.53;5037654;28;20398;-67
2022/10/02 09:35:28;;;;;;;3.40;0.90;;;;;;;16.46;100.00;100591.84;5039343;28;20068;-66
2022/10/02 09:38:28;;;;;;;2.45;0.80;;;;;;;16.46;100.00;100585.63;5039219;28;20112;-67
2022/10/02 09:41:03;;;;;;;4.43;1.30;;;;;;;16.24;100.00;100591.16;5033394;28;20176;-67
2022/10/02 09:43:53;;;;;;;3.65;1.20;;;;;;;16.16;100.00;100570.63;5046944;28;20157;-66
2022/10/02 09:46:43;;;;;;;2.67;1.35;;;;;;;16.31;100.00;100573.28;5032524;28;20501;-66
2022/10/02 09:49:24;;;;;;;1.83;0.77;;;;;;;16.41;100.00;100588.78;5039465;28;20048;-66
2022/10/02 09:52:07;;;;;;;3.10;1.10;;;;;;;16.23;100.00;100588.84;5039853;28;20056;-67
2022/10/02 09:55:00;;;;;;;0.73;0.73;;;;;;;16.11;100.00;100587.34;5034230;28;20039;-67
2022/10/02 09:57:29;;;;;;;1.33;0.93;;;;;;;16.21;100.00;100580.31;5035962;28;20033;-66
2022/10/02 10:00:10;;;;;;;3.47;0.95;;;;;;;16.21;100.00;100585.75;5036533;28;20419;-67
2022/10/02 10:02:47;;;;;;;0.75;0.60;;;;;;;16.24;100.00;100582.22;5033974;28;20360;-67
2022/10/02 10:05:33;;;;;;;3.15;1.23;;;;;;;16.36;100.00;100586.44;5039224;28;20042;-67
2022/10/02 10:08:21;;;;;;;2.10;0.93;;;;;;;16.56;100.00;100585.63;5039487;28;20088;-67
2022/10/02 10:10:49;;;;;;;0.88;0.50;;;;;;;16.79;100.00;100593.25;5035101;28;20069;-66
2022/10/02 10:13:38;;;;;;;2.72;0.75;;;;;;;16.99;100.00;100586.91;5032249;28;20037;-66
2022/10/02 10:16:18;;;;;;;0.60;0.50;;;;;;;17.09;100.00;100580.59;5045836;28;20382;-66
2022/10/02 10:19:02;;;;;;;1.70;0.55;;;;;;;17.25;100.00;100587.50;5050213;28;20119;-67
2022/10/02 10:22:06;;;;;;;4.30;0.60;;;;;;;17.39;100.00;100593.59;5042878;28;20492;-66
2022/10/02 10:24:50;;;;;;;1.27;0.60;;;;;;;17.35;99.39;100594.78;5006912;28;20049;-67
2022/10/02 10:27:28;;;;;;;4.68;0.70;;;;;;;17.39;99.08;100590.09;5046568;28;20037;-66
2022/10/02 10:30:20;;;;;;;2.70;0.90;;;;;;;17.55;99.19;100596.63;5052591;28;20033;-67
2022/10/02 10:33:03;;;;;;;3.42;0.60;;;;;;;17.65;98.95;100595.72;4989633;28;20094;-67
2022/10/02 10:35:37;;;;;;;0.77;0.63;;;;;;;17.92;98.19;100604.78;5042224;28;20048;-66
2022/10/02 10:38:33;;;;;;;0.88;0.50;;;;;;;17.93;96.59;100603.63;5029222;28;20052;-66
2022/10/02 10:41:09;;;;;;;0.65;0.40;;;;;;;17.86;95.59;100609.16;5039581;28;20045;-65
2022/10/02 10:43:59;;;;;;;1.08;0.50;;;;;;;17.95;94.88;100604.00;5041358;28;20049;-67
2022/10/02 10:46:58;;;;;;;3.90;0.77;;;;;;;17.86;94.84;100608.38;5036769;28;20029;-66
2022/10/02 10:50:13;;;;;;;5.07;0.60;;;;;;;18.08;94.60;100604.22;5043528;28;20086;-66
2022/10/02 10:52:50;;;;;;;1.38;0.70;;;;;;;18.33;92.62;100615.63;5038532;28;20038;-66
2022/10/02 10:55:34;;;;;;;2.53;0.52;;;;;;;18.32;92.18;100608.63;5043244;28;20029;-67
2022/10/02 10:58:20;;;;;;;2.70;0.38;;;;;;;18.51;92.48;100612.72;5041639;28;20033;-69
2022/10/02 11:01:37;;;;;;;0.70;0.50;;;;;;;18.69;92.22;100613.25;5039102;28;20037;-67
2022/10/02 11:04:12;;;;;;;2.35;1.38;;;;;;;18.46;90.45;100618.63;4983438;28;20589;-66
2022/10/02 11:07:06;;;;;;;1.15;0.55;;;;;;;18.57;90.00;100611.06;4972785;28;20593;-67
2022/10/02 11:09:47;;;;;;;4.93;0.60;;;;;;;18.64;88.63;100611.00;5000430;28;20041;-66
2022/10/02 11:12:33;;;;;;;0.60;0.40;;;;;;;18.62;88.84;100618.81;5036338;28;20037;-67
2022/10/02 11:15:17;;;;;;;3.75;0.60;;;;;;;18.55;88.38;100616.94;5031336;28;20052;-67
2022/10/02 11:18:14;;;;;;;3.28;0.70;;;;;;;18.89;88.51;100619.63;5032845;28;20068;-67
2022/10/02 11:20:57;;;;;;;1.83;0.30;;;;;;;18.88;87.82;100618.06;5039261;28;20084;-67
2022/10/02 11:23:38;;;;;;;2.35;0.35;;;;;;;18.88;88.11;100615.31;5039996;28;20029;-68
2022/10/02 11:26:16;;;;;;;0.45;0.30;;;;;;;18.96;87.26;100616.00;5037898;28;20033;-67
2022/10/02 11:28:57;;;;;;;2.50;0.40;;;;;;;18.87;87.11;100620.00;5043786;28;20094;-66
2022/10/02 11:31:38;;;;;;;0.82;0.30;;;;;;;18.98;87.46;100608.94;5048621;28;20047;-66
2022/10/02 11:34:03;;;;;;;1.65;0.40;;;;;;;19.01;86.22;100612.81;5016422;28;20033;-66
2022/10/02 11:36:44;;;;;;;2.78;0.75;;;;;;;19.07;86.92;100620.13;5043392;28;20044;-66
2022/10/02 11:39:18;;;;;;;2.30;0.68;;;;;;;18.96;87.47;100616.00;5039997;28;20047;-66
2022/10/02 11:41:58;;;;;;;1.67;0.30;;;;;;;18.95;85.21;100623.41;5034051;28;20095;-68
2022/10/02 11:44:26;;;;;;;3.63;0.60;;;;;;;18.79;85.83;100623.25;5038326;28;20112;-66
2022/10/02 11:47:01;;;;;;;1.27;0.50;;;;;;;18.88;83.07;100618.84;5040963;28;20614;-67
2022/10/02 11:49:45;;;;;;;0.82;0.30;;;;;;;18.80;83.08;100627.53;5037303;28;20048;-66
2022/10/02 11:52:40;;;;;;;1.55;0.50;;;;;;;18.72;82.75;100623.34;5023443;28;20505;-66
2022/10/02 11:55:29;;;;;;;1.35;0.50;;;;;;;18.63;81.38;100625.81;4997021;27;20515;-66
2022/10/02 11:58:20;;;;;;;0.82;0.20;;;;;;;18.68;81.44;100625.34;4987312;28;20137;-65
2022/10/02 12:01:09;;;;;;;2.30;0.38;;;;;;;18.70;84.19;100631.94;5000667;28;20060;-65
2022/10/02 12:03:41;;;;;;;1.45;0.35;;;;;;;18.83;84.71;100619.28;5013267;28;20491;-66
2022/10/02 12:06:27;;;;;;;;;;;;;;;18.89;83.44;100627.81;5000368;28;20038;-65
2022/10/02 12:09:26;;;;;;;0.95;0.20;;;;;;;18.95;82.26;100639.03;4998810;28;19914;-65
2022/10/02 12:12:05;;;;;;;0.52;0.20;;;;;;;19.11;83.18;100661.78;4998350;28;20048;-66
2022/10/02 12:15:01;;;;;;;4.28;0.40;;;;;;;18.80;84.87;100671.97;5001104;28;20034;-65
2022/10/02 12:17:32;;;;;;;0.82;0.10;;;;;;;18.74;86.26;100661.91;5000313;28;20556;-65
2022/10/02 12:29:39;;;;;;;0.90;0.40;;;;;;;18.23;89.90;100670.28;4997271;28;20042;-64
2022/10/02 12:32:22;;;;;;;2.17;0.20;;;;;;;18.14;90.39;100661.84;5023476;28;20059;-65